sensor_id;sensor_type;location;lat;lon;timestamp;P1;durP1;ratioP1;P2;durP2;ratioP2
69748;SDS011;57019;52.354;6.584;2022-07-06T00:01:18;4.07;;;1.00;;
69748;SDS011;57019;52.354;6.584;2022-07-06T00:03:45;4.53;;;1.10;;
69748;SDS011;57019;52.354;6.584;2022-07-06T00:06:10;3.47;;;1.10;;
69748;SDS011;57019;52.354;6.584;2022-07-06T00:08:36;4.22;;;1.20;;
69748;SDS011;57019;52.354;6.584;2022-07-06T00:11:02;4.30;;;1.15;;
69748;SDS011;57019;52.354;6.584;2022-07-06T00:13:28;4.87;;;1.20;;
69748;SDS011;57019;52.354;6.584;2022-07-06T00:15:53;3.75;;;1.20;;
69748;SDS011;57019;52.354;6.584;2022-07-06T00:18:19;3.30;;;1.00;;
69748;SDS011;57019;52.354;6.584;2022-07-06T00:20:44;5.13;;;1.20;;
69748;SDS011;57019;52.354;6.584;2022-07-06T00:23:09;4.03;;;1.20;;
69748;SDS011;57019;52.354;6.584;2022-07-06T00:25:35;3.85;;;1.10;;
69748;SDS011;57019;52.354;6.584;2022-07-06T00:28:01;3.30;;;1.07;;
69748;SDS011;57019;52.354;6.584;2022-07-06T00:30:26;3.50;;;0.90;;
69748;SDS011;57019;52.354;6.584;2022-07-06T00:32:52;3.72;;;1.10;;
69748;SDS011;57019;52.354;6.584;2022-07-06T00:35:18;3.60;;;1.10;;
69748;SDS011;57019;52.354;6.584;2022-07-06T00:37:43;3.60;;;1.00;;
69748;SDS011;57019;52.354;6.584;2022-07-06T00:40:09;4.43;;;1.20;;
69748;SDS011;57019;52.354;6.584;2022-07-06T00:42:47;3.73;;;1.10;;
69748;SDS011;57019;52.354;6.584;2022-07-06T00:45:14;4.70;;;1.20;;
69748;SDS011;57019;52.354;6.584;2022-07-06T00:47:40;4.30;;;1.13;;
69748;SDS011;57019;52.354;6.584;2022-07-06T00:50:07;4.60;;;1.10;;
69748;SDS011;57019;52.354;6.584;2022-07-06T00:52:40;4.40;;;1.30;;
69748;SDS011;57019;52.354;6.584;2022-07-06T00:55:10;3.73;;;1.10;;
69748;SDS011;57019;52.354;6.584;2022-07-06T00:57:36;4.65;;;1.20;;
69748;SDS011;57019;52.354;6.584;2022-07-06T01:00:03;3.55;;;1.10;;
69748;SDS011;57019;52.354;6.584;2022-07-06T01:02:34;3.75;;;1.10;;
69748;SDS011;57019;52.354;6.584;2022-07-06T01:05:00;4.15;;;1.10;;
69748;SDS011;57019;52.354;6.584;2022-07-06T01:07:26;3.80;;;1.13;;
69748;SDS011;57019;52.354;6.584;2022-07-06T01:09:52;3.65;;;1.10;;
69748;SDS011;57019;52.354;6.584;2022-07-06T01:12:18;4.20;;;1.20;;
69748;SDS011;57019;52.354;6.584;2022-07-06T01:14:43;4.37;;;1.20;;
69748;SDS011;57019;52.354;6.584;2022-07-06T01:17:10;4.15;;;1.20;;
69748;SDS011;57019;52.354;6.584;2022-07-06T01:19:36;5.05;;;1.23;;
69748;SDS011;57019;52.354;6.584;2022-07-06T01:22:02;3.60;;;1.00;;
69748;SDS011;57019;52.354;6.584;2022-07-06T01:24:27;4.80;;;1.20;;
69748;SDS011;57019;52.354;6.584;2022-07-06T01:26:53;3.87;;;1.10;;
69748;SDS011;57019;52.354;6.584;2022-07-06T01:29:18;3.37;;;1.10;;
69748;SDS011;57019;52.354;6.584;2022-07-06T01:31:48;3.20;;;1.00;;
69748;SDS011;57019;52.354;6.584;2022-07-06T01:34:15;4.97;;;1.10;;
69748;SDS011;57019;52.354;6.584;2022-07-06T01:36:41;4.47;;;1.10;;
69748;SDS011;57019;52.354;6.584;2022-07-06T01:39:07;4.23;;;1.13;;
69748;SDS011;57019;52.354;6.584;2022-07-06T01:41:33;4.83;;;1.20;;
69748;SDS011;57019;52.354;6.584;2022-07-06T01:43:59;4.25;;;1.10;;
69748;SDS011;57019;52.354;6.584;2022-07-06T01:46:25;4.40;;;1.10;;
69748;SDS011;57019;52.354;6.584;2022-07-06T01:48:50;4.00;;;1.10;;
69748;SDS011;57019;52.354;6.584;2022-07-06T01:51:15;3.40;;;1.00;;
69748;SDS011;57019;52.354;6.584;2022-07-06T01:53:41;4.60;;;1.17;;
69748;SDS011;57019;52.354;6.584;2022-07-06T01:56:07;3.53;;;1.10;;
69748;SDS011;57019;52.354;6.584;2022-07-06T01:58:33;4.13;;;1.10;;
69748;SDS011;57019;52.354;6.584;2022-07-06T02:00:58;4.82;;;1.20;;
69748;SDS011;57019;52.354;6.584;2022-07-06T02:03:24;4.27;;;1.10;;
69748;SDS011;57019;52.354;6.584;2022-07-06T02:05:49;3.80;;;1.07;;
69748;SDS011;57019;52.354;6.584;2022-07-06T02:08:14;3.93;;;1.20;;
69748;SDS011;57019;52.354;6.584;2022-07-06T02:10:40;3.63;;;1.07;;
69748;SDS011;57019;52.354;6.584;2022-07-06T02:13:05;3.40;;;1.10;;
69748;SDS011;57019;52.354;6.584;2022-07-06T02:15:31;3.97;;;1.00;;
69748;SDS011;57019;52.354;6.584;2022-07-06T02:17:56;3.90;;;1.00;;
69748;SDS011;57019;52.354;6.584;2022-07-06T02:20:21;4.53;;;1.33;;
69748;SDS011;57019;52.354;6.584;2022-07-06T02:22:46;4.27;;;1.40;;
69748;SDS011;57019;52.354;6.584;2022-07-06T02:25:12;4.00;;;1.00;;
69748;SDS011;57019;52.354;6.584;2022-07-06T02:27:37;3.70;;;1.00;;
69748;SDS011;57019;52.354;6.584;2022-07-06T02:30:03;3.40;;;0.90;;
69748;SDS011;57019;52.354;6.584;2022-07-06T02:32:30;4.27;;;1.10;;
69748;SDS011;57019;52.354;6.584;2022-07-06T02:34:55;3.63;;;1.10;;
69748;SDS011;57019;52.354;6.584;2022-07-06T02:37:20;4.07;;;1.10;;
69748;SDS011;57019;52.354;6.584;2022-07-06T02:39:46;4.10;;;1.10;;
69748;SDS011;57019;52.354;6.584;2022-07-06T02:42:11;4.03;;;1.03;;
69748;SDS011;57019;52.354;6.584;2022-07-06T02:44:37;6.47;;;1.23;;
69748;SDS011;57019;52.354;6.584;2022-07-06T02:47:02;4.73;;;1.40;;
69748;SDS011;57019;52.354;6.584;2022-07-06T02:49:28;4.18;;;1.13;;
69748;SDS011;57019;52.354;6.584;2022-07-06T02:51:53;3.53;;;1.00;;
69748;SDS011;57019;52.354;6.584;2022-07-06T02:54:18;3.50;;;1.00;;
69748;SDS011;57019;52.354;6.584;2022-07-06T02:56:43;3.80;;;1.00;;
69748;SDS011;57019;52.354;6.584;2022-07-06T02:59:09;4.32;;;1.10;;
69748;SDS011;57019;52.354;6.584;2022-07-06T03:01:35;4.03;;;1.10;;
69748;SDS011;57019;52.354;6.584;2022-07-06T03:04:00;3.63;;;1.07;;
69748;SDS011;57019;52.354;6.584;2022-07-06T03:06:25;3.90;;;1.20;;
69748;SDS011;57019;52.354;6.584;2022-07-06T03:08:51;4.27;;;1.00;;
69748;SDS011;57019;52.354;6.584;2022-07-06T03:11:16;4.03;;;1.10;;
69748;SDS011;57019;52.354;6.584;2022-07-06T03:13:41;4.43;;;1.10;;
69748;SDS011;57019;52.354;6.584;2022-07-06T03:16:07;3.75;;;1.10;;
69748;SDS011;57019;52.354;6.584;2022-07-06T03:18:32;3.47;;;1.03;;
69748;SDS011;57019;52.354;6.584;2022-07-06T03:20:57;3.40;;;1.00;;
69748;SDS011;57019;52.354;6.584;2022-07-06T03:23:23;3.23;;;1.00;;
69748;SDS011;57019;52.354;6.584;2022-07-06T03:25:48;3.83;;;1.03;;
69748;SDS011;57019;52.354;6.584;2022-07-06T03:28:13;5.07;;;1.07;;
69748;SDS011;57019;52.354;6.584;2022-07-06T03:30:39;3.85;;;1.20;;
69748;SDS011;57019;52.354;6.584;2022-07-06T03:33:04;3.00;;;0.90;;
69748;SDS011;57019;52.354;6.584;2022-07-06T03:35:29;4.30;;;1.03;;
69748;SDS011;57019;52.354;6.584;2022-07-06T03:37:55;3.50;;;1.03;;
69748;SDS011;57019;52.354;6.584;2022-07-06T03:40:20;3.77;;;1.00;;
69748;SDS011;57019;52.354;6.584;2022-07-06T03:42:45;3.17;;;0.90;;
69748;SDS011;57019;52.354;6.584;2022-07-06T03:45:11;3.78;;;1.00;;
69748;SDS011;57019;52.354;6.584;2022-07-06T03:47:36;3.60;;;1.00;;
69748;SDS011;57019;52.354;6.584;2022-07-06T03:50:02;4.27;;;1.03;;
69748;SDS011;57019;52.354;6.584;2022-07-06T03:52:27;4.10;;;1.13;;
69748;SDS011;57019;52.354;6.584;2022-07-06T03:54:53;3.80;;;1.10;;
69748;SDS011;57019;52.354;6.584;2022-07-06T03:57:18;3.40;;;0.90;;
69748;SDS011;57019;52.354;6.584;2022-07-06T03:59:43;2.93;;;0.90;;
69748;SDS011;57019;52.354;6.584;2022-07-06T04:02:09;4.10;;;1.20;;
69748;SDS011;57019;52.354;6.584;2022-07-06T04:04:34;2.53;;;0.80;;
69748;SDS011;57019;52.354;6.584;2022-07-06T04:06:59;3.10;;;0.90;;
69748;SDS011;57019;52.354;6.584;2022-07-06T04:09:25;3.90;;;0.90;;
69748;SDS011;57019;52.354;6.584;2022-07-06T04:11:51;4.20;;;1.10;;
69748;SDS011;57019;52.354;6.584;2022-07-06T04:14:16;3.33;;;0.90;;
69748;SDS011;57019;52.354;6.584;2022-07-06T04:16:41;3.80;;;1.00;;
69748;SDS011;57019;52.354;6.584;2022-07-06T04:19:07;3.53;;;1.00;;
69748;SDS011;57019;52.354;6.584;2022-07-06T04:21:32;4.93;;;0.97;;
69748;SDS011;57019;52.354;6.584;2022-07-06T04:23:57;3.73;;;0.93;;
69748;SDS011;57019;52.354;6.584;2022-07-06T04:26:23;2.93;;;0.93;;
69748;SDS011;57019;52.354;6.584;2022-07-06T04:28:48;3.37;;;0.90;;
69748;SDS011;57019;52.354;6.584;2022-07-06T04:31:13;3.90;;;0.90;;
69748;SDS011;57019;52.354;6.584;2022-07-06T04:33:40;2.90;;;0.90;;
69748;SDS011;57019;52.354;6.584;2022-07-06T04:36:07;2.75;;;0.85;;
69748;SDS011;57019;52.354;6.584;2022-07-06T04:38:32;3.40;;;1.07;;
69748;SDS011;57019;52.354;6.584;2022-07-06T04:40:58;3.63;;;0.90;;
69748;SDS011;57019;52.354;6.584;2022-07-06T04:43:23;3.57;;;1.00;;
69748;SDS011;57019;52.354;6.584;2022-07-06T04:45:48;2.90;;;0.90;;
69748;SDS011;57019;52.354;6.584;2022-07-06T04:48:13;3.47;;;0.90;;
69748;SDS011;57019;52.354;6.584;2022-07-06T04:50:39;4.80;;;0.97;;
69748;SDS011;57019;52.354;6.584;2022-07-06T04:53:04;4.03;;;1.10;;
69748;SDS011;57019;52.354;6.584;2022-07-06T04:55:29;2.77;;;0.90;;
69748;SDS011;57019;52.354;6.584;2022-07-06T04:57:55;3.20;;;1.00;;
69748;SDS011;57019;52.354;6.584;2022-07-06T05:00:20;3.97;;;1.03;;
69748;SDS011;57019;52.354;6.584;2022-07-06T05:02:46;4.75;;;0.90;;
69748;SDS011;57019;52.354;6.584;2022-07-06T05:05:11;3.17;;;0.90;;
69748;SDS011;57019;52.354;6.584;2022-07-06T05:07:37;3.63;;;1.00;;
69748;SDS011;57019;52.354;6.584;2022-07-06T05:10:05;4.00;;;0.98;;
69748;SDS011;57019;52.354;6.584;2022-07-06T05:12:34;6.30;;;0.90;;
69748;SDS011;57019;52.354;6.584;2022-07-06T05:15:00;6.18;;;1.10;;
69748;SDS011;57019;52.354;6.584;2022-07-06T05:17:26;7.47;;;1.00;;
69748;SDS011;57019;52.354;6.584;2022-07-06T05:19:51;5.17;;;1.00;;
69748;SDS011;57019;52.354;6.584;2022-07-06T05:22:17;4.18;;;0.90;;
69748;SDS011;57019;52.354;6.584;2022-07-06T05:24:42;5.73;;;1.00;;
69748;SDS011;57019;52.354;6.584;2022-07-06T05:27:08;5.43;;;1.00;;
69748;SDS011;57019;52.354;6.584;2022-07-06T05:29:33;5.17;;;1.03;;
69748;SDS011;57019;52.354;6.584;2022-07-06T05:31:59;3.87;;;1.13;;
69748;SDS011;57019;52.354;6.584;2022-07-06T05:34:24;3.72;;;1.10;;
69748;SDS011;57019;52.354;6.584;2022-07-06T05:36:49;4.30;;;1.20;;
69748;SDS011;57019;52.354;6.584;2022-07-06T05:39:15;4.33;;;0.90;;
69748;SDS011;57019;52.354;6.584;2022-07-06T05:41:44;4.82;;;1.08;;
69748;SDS011;57019;52.354;6.584;2022-07-06T05:44:10;3.73;;;1.10;;
69748;SDS011;57019;52.354;6.584;2022-07-06T05:46:35;4.67;;;1.00;;
69748;SDS011;57019;52.354;6.584;2022-07-06T05:49:00;5.07;;;1.00;;
69748;SDS011;57019;52.354;6.584;2022-07-06T05:51:49;7.05;;;0.90;;
69748;SDS011;57019;52.354;6.584;2022-07-06T05:54:14;3.63;;;1.00;;
69748;SDS011;57019;52.354;6.584;2022-07-06T05:56:40;3.53;;;1.10;;
69748;SDS011;57019;52.354;6.584;2022-07-06T05:59:05;4.53;;;1.00;;
69748;SDS011;57019;52.354;6.584;2022-07-06T06:01:31;4.65;;;1.00;;
69748;SDS011;57019;52.354;6.584;2022-07-06T06:03:56;3.77;;;0.90;;
69748;SDS011;57019;52.354;6.584;2022-07-06T06:06:21;4.30;;;1.00;;
69748;SDS011;57019;52.354;6.584;2022-07-06T06:08:47;4.13;;;0.97;;
69748;SDS011;57019;52.354;6.584;2022-07-06T06:11:12;10.93;;;1.30;;
69748;SDS011;57019;52.354;6.584;2022-07-06T06:13:37;7.30;;;1.17;;
69748;SDS011;57019;52.354;6.584;2022-07-06T06:16:03;5.50;;;1.20;;
69748;SDS011;57019;52.354;6.584;2022-07-06T06:18:28;3.00;;;0.83;;
69748;SDS011;57019;52.354;6.584;2022-07-06T06:20:54;8.17;;;0.90;;
69748;SDS011;57019;52.354;6.584;2022-07-06T06:23:19;8.30;;;0.90;;
69748;SDS011;57019;52.354;6.584;2022-07-06T06:25:45;4.95;;;0.90;;
69748;SDS011;57019;52.354;6.584;2022-07-06T06:28:10;5.10;;;0.90;;
69748;SDS011;57019;52.354;6.584;2022-07-06T06:30:36;3.40;;;0.80;;
69748;SDS011;57019;52.354;6.584;2022-07-06T06:33:13;5.72;;;1.00;;
69748;SDS011;57019;52.354;6.584;2022-07-06T06:35:42;3.83;;;0.93;;
69748;SDS011;57019;52.354;6.584;2022-07-06T06:38:08;5.55;;;1.10;;
69748;SDS011;57019;52.354;6.584;2022-07-06T06:40:34;4.57;;;1.00;;
69748;SDS011;57019;52.354;6.584;2022-07-06T06:42:59;4.70;;;0.90;;
69748;SDS011;57019;52.354;6.584;2022-07-06T06:45:25;4.57;;;1.00;;
69748;SDS011;57019;52.354;6.584;2022-07-06T06:47:50;4.67;;;0.90;;
69748;SDS011;57019;52.354;6.584;2022-07-06T06:50:16;5.53;;;0.90;;
69748;SDS011;57019;52.354;6.584;2022-07-06T06:52:41;7.03;;;1.00;;
69748;SDS011;57019;52.354;6.584;2022-07-06T06:55:06;3.57;;;0.90;;
69748;SDS011;57019;52.354;6.584;2022-07-06T06:57:32;8.15;;;1.10;;
69748;SDS011;57019;52.354;6.584;2022-07-06T06:59:58;5.27;;;0.93;;
69748;SDS011;57019;52.354;6.584;2022-07-06T07:02:23;6.53;;;1.25;;
69748;SDS011;57019;52.354;6.584;2022-07-06T07:04:48;6.23;;;1.10;;
69748;SDS011;57019;52.354;6.584;2022-07-06T07:07:14;4.53;;;0.90;;
69748;SDS011;57019;52.354;6.584;2022-07-06T07:09:39;6.50;;;1.20;;
69748;SDS011;57019;52.354;6.584;2022-07-06T07:12:04;4.77;;;1.10;;
69748;SDS011;57019;52.354;6.584;2022-07-06T07:14:31;4.47;;;0.90;;
69748;SDS011;57019;52.354;6.584;2022-07-06T07:16:56;6.77;;;1.20;;
69748;SDS011;57019;52.354;6.584;2022-07-06T07:19:21;6.20;;;1.10;;
69748;SDS011;57019;52.354;6.584;2022-07-06T07:21:47;8.87;;;1.30;;
69748;SDS011;57019;52.354;6.584;2022-07-06T07:24:12;9.17;;;1.20;;
69748;SDS011;57019;52.354;6.584;2022-07-06T07:26:37;6.33;;;1.00;;
69748;SDS011;57019;52.354;6.584;2022-07-06T07:29:03;6.73;;;1.40;;
69748;SDS011;57019;52.354;6.584;2022-07-06T07:31:28;5.77;;;1.23;;
69748;SDS011;57019;52.354;6.584;2022-07-06T07:33:54;5.05;;;1.00;;
69748;SDS011;57019;52.354;6.584;2022-07-06T07:36:21;5.43;;;1.00;;
69748;SDS011;57019;52.354;6.584;2022-07-06T07:38:47;7.00;;;1.20;;
69748;SDS011;57019;52.354;6.584;2022-07-06T07:41:13;6.43;;;1.00;;
69748;SDS011;57019;52.354;6.584;2022-07-06T07:43:39;5.55;;;1.10;;
69748;SDS011;57019;52.354;6.584;2022-07-06T07:46:04;7.83;;;1.30;;
69748;SDS011;57019;52.354;6.584;2022-07-06T07:48:30;4.10;;;0.97;;
69748;SDS011;57019;52.354;6.584;2022-07-06T07:50:55;6.85;;;1.15;;
69748;SDS011;57019;52.354;6.584;2022-07-06T07:53:20;6.90;;;1.27;;
69748;SDS011;57019;52.354;6.584;2022-07-06T07:55:45;5.33;;;1.53;;
69748;SDS011;57019;52.354;6.584;2022-07-06T07:58:11;7.20;;;1.23;;
69748;SDS011;57019;52.354;6.584;2022-07-06T08:00:36;7.50;;;1.20;;
69748;SDS011;57019;52.354;6.584;2022-07-06T08:03:02;7.00;;;1.40;;
69748;SDS011;57019;52.354;6.584;2022-07-06T08:05:28;6.57;;;1.58;;
69748;SDS011;57019;52.354;6.584;2022-07-06T08:07:53;7.50;;;1.33;;
69748;SDS011;57019;52.354;6.584;2022-07-06T08:10:19;8.33;;;1.80;;
69748;SDS011;57019;52.354;6.584;2022-07-06T08:12:45;6.43;;;1.70;;
69748;SDS011;57019;52.354;6.584;2022-07-06T08:15:10;8.00;;;2.00;;
69748;SDS011;57019;52.354;6.584;2022-07-06T08:17:36;5.87;;;1.80;;
69748;SDS011;57019;52.354;6.584;2022-07-06T08:20:01;5.93;;;1.70;;
69748;SDS011;57019;52.354;6.584;2022-07-06T08:22:26;8.80;;;1.80;;
69748;SDS011;57019;52.354;6.584;2022-07-06T08:24:52;7.73;;;1.80;;
69748;SDS011;57019;52.354;6.584;2022-07-06T08:27:17;8.60;;;1.70;;
69748;SDS011;57019;52.354;6.584;2022-07-06T08:29:42;6.30;;;1.70;;
69748;SDS011;57019;52.354;6.584;2022-07-06T08:32:08;5.87;;;1.70;;
69748;SDS011;57019;52.354;6.584;2022-07-06T08:34:33;6.50;;;1.80;;
69748;SDS011;57019;52.354;6.584;2022-07-06T08:36:58;6.03;;;1.60;;
69748;SDS011;57019;52.354;6.584;2022-07-06T08:39:24;8.10;;;1.60;;
69748;SDS011;57019;52.354;6.584;2022-07-06T08:41:49;5.23;;;1.20;;
69748;SDS011;57019;52.354;6.584;2022-07-06T08:44:16;4.00;;;1.20;;
69748;SDS011;57019;52.354;6.584;2022-07-06T08:46:43;4.97;;;1.10;;
69748;SDS011;57019;52.354;6.584;2022-07-06T08:49:12;4.75;;;1.20;;
69748;SDS011;57019;52.354;6.584;2022-07-06T08:51:38;5.18;;;0.93;;
69748;SDS011;57019;52.354;6.584;2022-07-06T08:54:05;7.13;;;1.70;;
69748;SDS011;57019;52.354;6.584;2022-07-06T08:56:32;4.18;;;1.00;;
69748;SDS011;57019;52.354;6.584;2022-07-06T08:58:58;5.27;;;1.20;;
69748;SDS011;57019;52.354;6.584;2022-07-06T09:01:24;4.65;;;1.20;;
69748;SDS011;57019;52.354;6.584;2022-07-06T09:03:50;4.00;;;0.98;;
69748;SDS011;57019;52.354;6.584;2022-07-06T09:06:20;5.67;;;1.10;;
69748;SDS011;57019;52.354;6.584;2022-07-06T09:08:52;3.45;;;0.90;;
69748;SDS011;57019;52.354;6.584;2022-07-06T09:11:20;4.38;;;1.00;;
69748;SDS011;57019;52.354;6.584;2022-07-06T09:13:46;5.40;;;1.10;;
69748;SDS011;57019;52.354;6.584;2022-07-06T09:16:13;4.40;;;1.00;;
69748;SDS011;57019;52.354;6.584;2022-07-06T09:18:41;4.40;;;1.10;;
69748;SDS011;57019;52.354;6.584;2022-07-06T09:21:09;3.60;;;0.95;;
69748;SDS011;57019;52.354;6.584;2022-07-06T09:23:35;4.53;;;1.10;;
69748;SDS011;57019;52.354;6.584;2022-07-06T09:26:02;4.25;;;0.93;;
69748;SDS011;57019;52.354;6.584;2022-07-06T09:28:49;4.53;;;1.10;;
69748;SDS011;57019;52.354;6.584;2022-07-06T09:31:15;4.55;;;1.05;;
69748;SDS011;57019;52.354;6.584;2022-07-06T09:34:03;3.30;;;0.90;;
69748;SDS011;57019;52.354;6.584;2022-07-06T09:41:55;4.72;;;0.80;;
69748;SDS011;57019;52.354;6.584;2022-07-06T09:44:22;3.78;;;0.93;;
69748;SDS011;57019;52.354;6.584;2022-07-06T09:46:51;3.95;;;0.90;;
69748;SDS011;57019;52.354;6.584;2022-07-06T09:49:18;4.18;;;1.10;;
69748;SDS011;57019;52.354;6.584;2022-07-06T09:51:45;3.30;;;0.90;;
69748;SDS011;57019;52.354;6.584;2022-07-06T09:54:11;3.97;;;0.90;;
69748;SDS011;57019;52.354;6.584;2022-07-06T09:56:40;5.40;;;1.20;;
69748;SDS011;57019;52.354;6.584;2022-07-06T09:59:13;4.00;;;1.00;;
69748;SDS011;57019;52.354;6.584;2022-07-06T10:01:40;5.68;;;1.00;;
69748;SDS011;57019;52.354;6.584;2022-07-06T10:04:11;3.05;;;0.80;;
69748;SDS011;57019;52.354;6.584;2022-07-06T10:06:43;3.22;;;0.93;;
69748;SDS011;57019;52.354;6.584;2022-07-06T10:09:09;4.18;;;0.98;;
69748;SDS011;57019;52.354;6.584;2022-07-06T10:11:38;3.63;;;0.90;;
69748;SDS011;57019;52.354;6.584;2022-07-06T10:14:06;3.25;;;0.85;;
69748;SDS011;57019;52.354;6.584;2022-07-06T10:16:33;3.45;;;0.90;;
69748;SDS011;57019;52.354;6.584;2022-07-06T10:19:01;4.60;;;0.90;;
69748;SDS011;57019;52.354;6.584;2022-07-06T10:21:29;4.57;;;1.00;;
69748;SDS011;57019;52.354;6.584;2022-07-06T10:23:55;3.93;;;0.90;;
69748;SDS011;57019;52.354;6.584;2022-07-06T10:26:25;3.13;;;0.90;;
69748;SDS011;57019;52.354;6.584;2022-07-06T10:28:51;4.65;;;0.80;;
69748;SDS011;57019;52.354;6.584;2022-07-06T10:31:18;3.15;;;0.90;;
69748;SDS011;57019;52.354;6.584;2022-07-06T10:33:44;3.43;;;0.90;;
69748;SDS011;57019;52.354;6.584;2022-07-06T10:36:11;3.40;;;0.90;;
69748;SDS011;57019;52.354;6.584;2022-07-06T10:38:38;2.05;;;0.70;;
69748;SDS011;57019;52.354;6.584;2022-07-06T10:41:05;3.05;;;0.90;;
69748;SDS011;57019;52.354;6.584;2022-07-06T10:43:32;2.97;;;0.90;;
69748;SDS011;57019;52.354;6.584;2022-07-06T10:45:58;4.67;;;0.93;;
69748;SDS011;57019;52.354;6.584;2022-07-06T10:48:24;7.10;;;1.08;;
69748;SDS011;57019;52.354;6.584;2022-07-06T10:50:51;2.90;;;0.80;;
69748;SDS011;57019;52.354;6.584;2022-07-06T10:53:21;3.80;;;1.00;;
69748;SDS011;57019;52.354;6.584;2022-07-06T10:55:49;3.13;;;0.80;;
69748;SDS011;57019;52.354;6.584;2022-07-06T11:01:05;2.33;;;0.70;;
69748;SDS011;57019;52.354;6.584;2022-07-06T11:08:48;3.35;;;0.80;;
69748;SDS011;57019;52.354;6.584;2022-07-06T11:11:26;3.45;;;0.88;;
69748;SDS011;57019;52.354;6.584;2022-07-06T11:14:19;3.15;;;0.80;;
69748;SDS011;57019;52.354;6.584;2022-07-06T11:19:12;3.73;;;0.80;;
69748;SDS011;57019;52.354;6.584;2022-07-06T11:21:49;3.15;;;0.80;;
69748;SDS011;57019;52.354;6.584;2022-07-06T11:24:24;3.13;;;0.80;;
69748;SDS011;57019;52.354;6.584;2022-07-06T11:26:51;2.97;;;0.88;;
69748;SDS011;57019;52.354;6.584;2022-07-06T11:29:19;3.40;;;0.80;;
69748;SDS011;57019;52.354;6.584;2022-07-06T11:31:52;4.27;;;1.00;;
69748;SDS011;57019;52.354;6.584;2022-07-06T11:36:55;3.78;;;0.90;;
69748;SDS011;57019;52.354;6.584;2022-07-06T11:39:32;4.20;;;0.88;;
69748;SDS011;57019;52.354;6.584;2022-07-06T11:41:58;2.55;;;0.80;;
69748;SDS011;57019;52.354;6.584;2022-07-06T11:44:25;2.00;;;0.70;;
69748;SDS011;57019;52.354;6.584;2022-07-06T11:46:51;3.75;;;0.88;;
69748;SDS011;57019;52.354;6.584;2022-07-06T11:49:17;3.17;;;0.80;;
69748;SDS011;57019;52.354;6.584;2022-07-06T11:51:44;3.28;;;1.02;;
69748;SDS011;57019;52.354;6.584;2022-07-06T11:54:14;4.85;;;0.90;;
69748;SDS011;57019;52.354;6.584;2022-07-06T11:59:20;3.43;;;0.90;;
69748;SDS011;57019;52.354;6.584;2022-07-06T12:01:49;3.60;;;0.80;;
69748;SDS011;57019;52.354;6.584;2022-07-06T12:04:23;2.05;;;0.73;;
69748;SDS011;57019;52.354;6.584;2022-07-06T12:06:49;2.83;;;0.90;;
69748;SDS011;57019;52.354;6.584;2022-07-06T12:09:14;4.03;;;0.80;;
69748;SDS011;57019;52.354;6.584;2022-07-06T12:11:40;4.03;;;0.90;;
69748;SDS011;57019;52.354;6.584;2022-07-06T12:14:13;3.05;;;0.93;;
69748;SDS011;57019;52.354;6.584;2022-07-06T12:16:41;2.70;;;0.80;;
69748;SDS011;57019;52.354;6.584;2022-07-06T12:19:06;3.35;;;0.90;;
69748;SDS011;57019;52.354;6.584;2022-07-06T12:21:33;2.90;;;0.87;;
69748;SDS011;57019;52.354;6.584;2022-07-06T12:23:59;3.20;;;0.80;;
69748;SDS011;57019;52.354;6.584;2022-07-06T12:26:26;3.58;;;0.90;;
69748;SDS011;57019;52.354;6.584;2022-07-06T12:29:05;4.03;;;0.90;;
69748;SDS011;57019;52.354;6.584;2022-07-06T12:31:35;4.80;;;0.90;;
69748;SDS011;57019;52.354;6.584;2022-07-06T12:34:05;3.30;;;0.80;;
69748;SDS011;57019;52.354;6.584;2022-07-06T12:36:57;3.08;;;0.80;;
69748;SDS011;57019;52.354;6.584;2022-07-06T12:39:25;3.58;;;0.98;;
69748;SDS011;57019;52.354;6.584;2022-07-06T12:42:00;2.70;;;0.80;;
69748;SDS011;57019;52.354;6.584;2022-07-06T12:44:27;2.80;;;0.90;;
69748;SDS011;57019;52.354;6.584;2022-07-06T12:49:28;2.50;;;0.85;;
69748;SDS011;57019;52.354;6.584;2022-07-06T12:52:01;3.47;;;1.00;;
69748;SDS011;57019;52.354;6.584;2022-07-06T12:54:34;3.92;;;0.90;;
69748;SDS011;57019;52.354;6.584;2022-07-06T12:57:01;2.25;;;0.80;;
69748;SDS011;57019;52.354;6.584;2022-07-06T12:59:30;2.70;;;0.80;;
69748;SDS011;57019;52.354;6.584;2022-07-06T13:01:57;3.43;;;0.87;;
69748;SDS011;57019;52.354;6.584;2022-07-06T13:04:23;3.25;;;0.90;;
69748;SDS011;57019;52.354;6.584;2022-07-06T13:06:49;3.00;;;0.80;;
69748;SDS011;57019;52.354;6.584;2022-07-06T13:09:15;2.90;;;0.80;;
69748;SDS011;57019;52.354;6.584;2022-07-06T13:11:41;2.80;;;0.80;;
69748;SDS011;57019;52.354;6.584;2022-07-06T13:14:07;3.67;;;0.80;;
69748;SDS011;57019;52.354;6.584;2022-07-06T13:16:34;3.40;;;0.90;;
69748;SDS011;57019;52.354;6.584;2022-07-06T13:19:00;2.65;;;0.80;;
69748;SDS011;57019;52.354;6.584;2022-07-06T13:21:26;3.22;;;1.00;;
69748;SDS011;57019;52.354;6.584;2022-07-06T13:23:51;2.93;;;0.87;;
69748;SDS011;57019;52.354;6.584;2022-07-06T13:26:16;3.10;;;0.93;;
69748;SDS011;57019;52.354;6.584;2022-07-06T13:28:42;3.55;;;0.98;;
69748;SDS011;57019;52.354;6.584;2022-07-06T13:31:07;2.90;;;0.87;;
69748;SDS011;57019;52.354;6.584;2022-07-06T13:33:33;3.37;;;0.90;;
69748;SDS011;57019;52.354;6.584;2022-07-06T13:35:58;3.73;;;1.10;;
69748;SDS011;57019;52.354;6.584;2022-07-06T13:38:23;3.10;;;0.90;;
69748;SDS011;57019;52.354;6.584;2022-07-06T13:40:49;3.33;;;0.88;;
69748;SDS011;57019;52.354;6.584;2022-07-06T13:43:14;4.10;;;1.00;;
69748;SDS011;57019;52.354;6.584;2022-07-06T13:45:39;7.13;;;1.10;;
69748;SDS011;57019;52.354;6.584;2022-07-06T13:48:05;5.77;;;1.10;;
69748;SDS011;57019;52.354;6.584;2022-07-06T13:50:30;2.93;;;0.80;;
69748;SDS011;57019;52.354;6.584;2022-07-06T13:52:57;4.55;;;0.80;;
69748;SDS011;57019;52.354;6.584;2022-07-06T13:55:23;4.20;;;0.85;;
69748;SDS011;57019;52.354;6.584;2022-07-06T13:57:49;3.70;;;0.90;;
69748;SDS011;57019;52.354;6.584;2022-07-06T14:00:14;3.13;;;0.90;;
69748;SDS011;57019;52.354;6.584;2022-07-06T14:02:43;3.58;;;0.98;;
69748;SDS011;57019;52.354;6.584;2022-07-06T14:05:08;3.57;;;1.10;;
69748;SDS011;57019;52.354;6.584;2022-07-06T14:07:34;3.03;;;0.98;;
69748;SDS011;57019;52.354;6.584;2022-07-06T14:09:59;4.33;;;1.00;;
69748;SDS011;57019;52.354;6.584;2022-07-06T14:12:25;3.83;;;1.00;;
69748;SDS011;57019;52.354;6.584;2022-07-06T14:14:51;2.85;;;0.90;;
69748;SDS011;57019;52.354;6.584;2022-07-06T14:17:16;4.40;;;0.87;;
69748;SDS011;57019;52.354;6.584;2022-07-06T14:19:41;3.63;;;1.00;;
69748;SDS011;57019;52.354;6.584;2022-07-06T14:22:07;6.33;;;1.10;;
69748;SDS011;57019;52.354;6.584;2022-07-06T14:24:32;3.43;;;0.93;;
69748;SDS011;57019;52.354;6.584;2022-07-06T14:26:57;7.07;;;1.00;;
69748;SDS011;57019;52.354;6.584;2022-07-06T14:29:23;6.50;;;1.20;;
69748;SDS011;57019;52.354;6.584;2022-07-06T14:31:48;9.57;;;1.10;;
69748;SDS011;57019;52.354;6.584;2022-07-06T14:34:13;4.60;;;1.10;;
69748;SDS011;57019;52.354;6.584;2022-07-06T14:36:39;3.57;;;0.83;;
69748;SDS011;57019;52.354;6.584;2022-07-06T14:39:07;2.97;;;0.80;;
69748;SDS011;57019;52.354;6.584;2022-07-06T14:41:33;4.50;;;1.10;;
69748;SDS011;57019;52.354;6.584;2022-07-06T14:44:00;2.88;;;0.90;;
69748;SDS011;57019;52.354;6.584;2022-07-06T14:46:26;3.20;;;1.00;;
69748;SDS011;57019;52.354;6.584;2022-07-06T14:48:54;2.97;;;0.87;;
69748;SDS011;57019;52.354;6.584;2022-07-06T14:51:22;4.53;;;0.90;;
69748;SDS011;57019;52.354;6.584;2022-07-06T14:53:53;3.53;;;0.97;;
69748;SDS011;57019;52.354;6.584;2022-07-06T14:56:22;3.17;;;1.00;;
69748;SDS011;57019;52.354;6.584;2022-07-06T14:58:50;7.20;;;1.10;;
69748;SDS011;57019;52.354;6.584;2022-07-06T15:01:15;3.70;;;0.90;;
69748;SDS011;57019;52.354;6.584;2022-07-06T15:03:41;5.27;;;1.43;;
69748;SDS011;57019;52.354;6.584;2022-07-06T15:06:06;5.50;;;1.00;;
69748;SDS011;57019;52.354;6.584;2022-07-06T15:08:32;5.07;;;1.00;;